createdAt,value
2022-11-07T00:00:36.969Z,13.60
2022-11-07T00:02:59.644Z,13.07
2022-11-07T00:05:22.359Z,13.60
2022-11-07T00:07:44.830Z,13.57
2022-11-07T00:10:07.683Z,12.93
2022-11-07T00:12:30.375Z,12.45
2022-11-07T00:14:52.895Z,12.63
2022-11-07T00:17:15.446Z,12.13
2022-11-07T00:19:38.008Z,12.63
2022-11-07T00:22:00.687Z,12.77
2022-11-07T00:24:23.198Z,12.48
2022-11-07T00:26:47.197Z,12.55
2022-11-07T00:29:17.823Z,12.43
2022-11-07T00:31:40.637Z,11.98
2022-11-07T00:34:03.199Z,12.07
2022-11-07T00:36:28.282Z,11.68
2022-11-07T00:38:51.334Z,12.15
2022-11-07T00:41:14.153Z,12.70
2022-11-07T00:43:36.724Z,12.85
2022-11-07T00:46:01.991Z,12.90
2022-11-07T00:48:24.530Z,13.02
2022-11-07T00:50:47.553Z,13.13
2022-11-07T00:53:10.155Z,12.30
2022-11-07T00:55:33.350Z,13.20
2022-11-07T01:00:32.555Z,12.75
2022-11-07T01:03:14.267Z,13.35
2022-11-07T01:05:37.504Z,13.13
2022-11-07T01:08:00.117Z,13.10
2022-11-07T01:10:22.641Z,12.45
2022-11-07T01:12:45.126Z,12.02
2022-11-07T01:15:08.154Z,12.20
2022-11-07T01:17:30.777Z,12.55
2022-11-07T01:19:53.795Z,12.25
2022-11-07T01:22:16.319Z,12.73
2022-11-07T01:24:38.987Z,12.10
2022-11-07T01:27:01.550Z,12.77
2022-11-07T01:29:24.303Z,12.50
2022-11-07T01:31:47.183Z,12.93
2022-11-07T01:34:09.819Z,12.88
2022-11-07T01:36:33.113Z,13.02
2022-11-07T01:38:55.667Z,12.80
2022-11-07T01:41:27.255Z,14.15
2022-11-07T01:44:14.806Z,14.30
2022-11-07T01:46:40.075Z,12.55
2022-11-07T01:49:09.624Z,12.30
2022-11-07T01:51:37.478Z,12.77
2022-11-07T01:54:01.131Z,12.98
2022-11-07T01:56:27.575Z,12.85
2022-11-07T01:58:50.708Z,15.00
2022-11-07T02:01:14.381Z,13.65
2022-11-07T02:03:37.125Z,14.02
2022-11-07T02:06:05.310Z,13.32
2022-11-07T02:08:32.455Z,12.38
2022-11-07T02:10:56.763Z,12.18
2022-11-07T02:13:30.748Z,12.27
2022-11-07T02:15:53.681Z,12.27
2022-11-07T02:18:16.424Z,11.85
2022-11-07T02:20:39.206Z,11.85
2022-11-07T02:23:08.597Z,11.52
2022-11-07T02:25:31.192Z,11.68
2022-11-07T02:27:58.490Z,11.85
2022-11-07T02:30:25.846Z,12.48
2022-11-07T02:32:48.409Z,12.25
2022-11-07T02:35:29.423Z,12.10
2022-11-07T02:37:52.972Z,12.85
2022-11-07T02:40:15.788Z,12.63
2022-11-07T02:42:45.741Z,12.32
2022-11-07T02:45:08.656Z,11.88
2022-11-07T02:47:31.224Z,13.20
2022-11-07T02:49:53.740Z,13.15
2022-11-07T02:52:16.295Z,12.52
2022-11-07T02:54:38.786Z,12.73
2022-11-07T02:57:01.548Z,12.82
2022-11-07T02:59:27.213Z,12.13
2022-11-07T03:01:49.960Z,12.68
2022-11-07T03:04:12.747Z,12.88
2022-11-07T03:06:35.428Z,12.82
2022-11-07T03:08:58.131Z,13.10
2022-11-07T03:11:20.719Z,13.07
2022-11-07T03:13:43.204Z,13.55
2022-11-07T03:16:08.659Z,12.57
2022-11-07T03:18:31.109Z,13.20
2022-11-07T03:20:53.699Z,12.77
2022-11-07T03:23:16.569Z,12.88
2022-11-07T03:25:39.586Z,13.02
2022-11-07T03:28:02.394Z,13.27
2022-11-07T03:30:25.263Z,12.85
2022-11-07T03:32:47.903Z,12.90
2022-11-07T03:35:10.700Z,12.65
2022-11-07T03:37:33.313Z,13.63
2022-11-07T03:39:55.913Z,13.98
2022-11-07T03:42:18.346Z,12.88
2022-11-07T03:44:40.928Z,13.27
2022-11-07T03:47:03.379Z,12.45
2022-11-07T03:49:25.950Z,13.02
2022-11-07T03:51:48.509Z,13.57
2022-11-07T03:54:11.158Z,12.85
2022-11-07T03:56:33.702Z,14.32
2022-11-07T03:58:56.644Z,13.20
2022-11-07T04:01:19.145Z,13.35
2022-11-07T04:03:41.795Z,13.63
2022-11-07T04:06:04.498Z,13.05
2022-11-07T04:08:27.188Z,12.45
2022-11-07T04:10:49.741Z,13.25
2022-11-07T04:13:30.846Z,13.15
2022-11-07T04:16:29.041Z,13.45
2022-11-07T04:18:51.677Z,13.55
2022-11-07T04:21:14.489Z,12.82
2022-11-07T04:23:37.356Z,13.37
2022-11-07T04:26:18.322Z,12.95
2022-11-07T04:28:40.829Z,14.65
2022-11-07T04:31:03.721Z,14.88
2022-11-07T04:33:26.226Z,15.25
2022-11-07T04:35:48.716Z,16.25
2022-11-07T04:38:11.262Z,16.70
2022-11-07T04:40:35.539Z,17.05
2022-11-07T04:42:58.415Z,15.23
2022-11-07T04:45:20.946Z,16.45
2022-11-07T04:47:43.750Z,17.73
2022-11-07T04:50:09.194Z,19.45
2022-11-07T04:52:32.101Z,19.80
2022-11-07T04:54:54.627Z,18.50
2022-11-07T04:57:17.291Z,18.83
2022-11-07T04:59:39.819Z,18.20
2022-11-07T05:02:06.324Z,19.77
2022-11-07T05:04:28.989Z,20.65
2022-11-07T05:06:51.468Z,20.77
2022-11-07T05:09:17.955Z,20.92
2022-11-07T05:11:40.442Z,21.70
2022-11-07T05:14:02.955Z,21.38
2022-11-07T05:16:25.741Z,20.90
2022-11-07T05:18:48.242Z,21.65
2022-11-07T05:21:11.388Z,21.55
2022-11-07T05:23:33.858Z,21.20
2022-11-07T05:25:56.894Z,22.42
2022-11-07T05:28:23.914Z,22.33
2022-11-07T05:30:52.787Z,21.15
2022-11-07T05:33:18.485Z,21.83
2022-11-07T05:35:41.942Z,23.48
2022-11-07T05:38:05.060Z,23.65
2022-11-07T05:40:27.730Z,23.65
2022-11-07T05:42:50.239Z,23.05
2022-11-07T05:45:12.815Z,22.75
2022-11-07T05:47:35.723Z,24.75
2022-11-07T05:49:59.498Z,26.25
2022-11-07T05:52:21.928Z,25.90
2022-11-07T05:54:44.501Z,25.17
2022-11-07T05:57:06.960Z,25.27
2022-11-07T05:59:29.555Z,24.92
2022-11-07T06:01:53.377Z,23.20
2022-11-07T06:04:16.055Z,23.30
2022-11-07T06:06:38.642Z,22.80
2022-11-07T06:09:01.229Z,21.90
2022-11-07T06:11:23.776Z,23.02
2022-11-07T06:13:46.504Z,23.17
2022-11-07T06:16:09.071Z,22.52
2022-11-07T06:18:31.896Z,21.17
2022-11-07T06:20:54.479Z,21.08
2022-11-07T06:23:17.818Z,21.02
2022-11-07T06:25:41.102Z,20.92
2022-11-07T06:28:06.276Z,20.48
2022-11-07T06:30:29.491Z,19.55
2022-11-07T06:32:52.246Z,20.20
2022-11-07T06:35:15.305Z,19.73
2022-11-07T06:37:38.624Z,18.73
2022-11-07T06:40:01.330Z,18.17
2022-11-07T06:42:26.560Z,16.33
2022-11-07T06:44:49.460Z,15.38
2022-11-07T06:47:13.172Z,14.52
2022-11-07T06:49:35.913Z,13.90
2022-11-07T06:51:58.920Z,13.27
2022-11-07T06:54:21.691Z,13.95
2022-11-07T06:56:44.397Z,13.38
2022-11-07T06:59:07.149Z,13.38
2022-11-07T07:01:30.187Z,13.23
2022-11-07T07:03:53.374Z,13.60
2022-11-07T07:06:17.312Z,13.65
2022-11-07T07:08:40.207Z,13.18
2022-11-07T07:11:05.472Z,13.55
2022-11-07T07:13:29.485Z,14.20
2022-11-07T07:15:54.016Z,14.25
2022-11-07T07:18:16.703Z,14.85
2022-11-07T07:20:40.075Z,14.90
2022-11-07T07:23:05.693Z,14.48
2022-11-07T07:25:28.605Z,14.02
2022-11-07T07:27:51.397Z,15.68
2022-11-07T07:30:15.100Z,15.10
2022-11-07T07:32:38.389Z,15.15
2022-11-07T07:35:01.185Z,15.05
2022-11-07T07:37:24.775Z,14.95
2022-11-07T07:39:47.691Z,15.55
2022-11-07T07:42:10.379Z,15.02
2022-11-07T07:44:32.968Z,16.10
2022-11-07T07:46:55.591Z,16.83
2022-11-07T07:49:18.293Z,15.65
2022-11-07T07:51:41.066Z,15.48
2022-11-07T07:54:03.815Z,16.98
2022-11-07T07:56:27.233Z,16.45
2022-11-07T07:58:50.210Z,15.98
2022-11-07T08:01:13.149Z,15.00
2022-11-07T08:03:59.658Z,16.48
2022-11-07T08:06:19.520Z,15.63
2022-11-07T08:08:42.011Z,14.68
2022-11-07T08:11:07.854Z,13.88
2022-11-07T08:13:30.764Z,14.07
2022-11-07T08:15:53.816Z,13.75
2022-11-07T08:18:16.659Z,14.48
2022-11-07T08:20:39.558Z,14.73
2022-11-07T08:23:04.416Z,14.00
2022-11-07T08:25:27.129Z,15.63
2022-11-07T08:27:50.036Z,16.23
2022-11-07T08:30:17.754Z,15.20
2022-11-07T08:32:40.768Z,14.23
2022-11-07T08:35:03.635Z,14.02
2022-11-07T08:37:26.675Z,13.43
2022-11-07T08:39:49.740Z,13.18
2022-11-07T08:42:12.887Z,13.27
2022-11-07T08:44:36.783Z,14.20
2022-11-07T08:47:02.090Z,13.23
2022-11-07T08:49:27.246Z,13.20
2022-11-07T08:51:50.693Z,13.48
2022-11-07T08:54:13.650Z,13.63
2022-11-07T08:56:36.371Z,15.50
2022-11-07T08:58:59.147Z,13.93
2022-11-07T09:01:22.271Z,14.05
2022-11-07T09:03:50.321Z,13.50
2022-11-07T09:06:19.002Z,13.68
2022-11-07T09:08:41.739Z,13.77
2022-11-07T09:11:08.678Z,14.13
2022-11-07T09:13:32.928Z,13.05
2022-11-07T09:15:59.677Z,12.35
2022-11-07T09:18:22.865Z,12.20
2022-11-07T09:20:45.712Z,12.45
2022-11-07T09:23:09.391Z,12.50
2022-11-07T09:25:32.105Z,12.82
2022-11-07T09:30:32.832Z,11.80
2022-11-07T09:32:56.472Z,11.82
2022-11-07T09:35:19.445Z,11.48
2022-11-07T09:37:42.486Z,11.90
2022-11-07T09:40:06.921Z,11.88
2022-11-07T09:42:50.838Z,11.57
2022-11-07T09:45:14.112Z,11.38
2022-11-07T09:47:40.475Z,10.98
2022-11-07T09:50:22.851Z,11.20
2022-11-07T09:52:48.347Z,11.30
2022-11-07T09:55:47.955Z,14.73
2022-11-07T09:58:21.164Z,10.57
2022-11-07T10:00:43.796Z,10.25
2022-11-07T10:03:09.401Z,12.18
2022-11-07T10:05:54.405Z,11.35
2022-11-07T10:08:27.229Z,10.05
2022-11-07T10:10:57.772Z,11.35
2022-11-07T10:13:35.108Z,11.18
2022-11-07T10:16:18.156Z,10.80
2022-11-07T10:18:54.675Z,10.70
2022-11-07T10:21:43.286Z,10.88
2022-11-07T10:24:13.714Z,10.10
2022-11-07T10:26:37.126Z,9.57
2022-11-07T10:29:10.966Z,10.35
2022-11-07T10:31:41.522Z,10.65
2022-11-07T10:34:31.696Z,10.05
2022-11-07T10:36:54.474Z,9.45
2022-11-07T10:39:19.697Z,9.80
2022-11-07T10:41:48.081Z,9.23
2022-11-07T10:46:51.583Z,9.25
2022-11-07T10:49:31.336Z,9.25
2022-11-07T10:51:55.466Z,9.80
2022-11-07T10:54:31.410Z,9.73
2022-11-07T10:57:06.010Z,10.60
2022-11-07T10:59:35.788Z,10.27
2022-11-07T11:02:01.098Z,8.88
2022-11-07T11:04:24.788Z,8.20
2022-11-07T11:06:56.982Z,7.65
2022-11-07T11:09:20.201Z,7.85
2022-11-07T11:11:45.504Z,8.07
2022-11-07T11:14:15.896Z,7.90
2022-11-07T11:16:40.737Z,8.15
2022-11-07T11:19:04.784Z,7.25
2022-11-07T11:21:39.189Z,8.02
2022-11-07T11:24:12.615Z,7.63
2022-11-07T11:26:37.717Z,7.45
2022-11-07T11:29:11.029Z,7.53
2022-11-07T11:31:37.192Z,7.50
2022-11-07T11:34:22.281Z,7.90
2022-11-07T11:37:18.606Z,8.52
2022-11-07T11:39:51.275Z,7.88
2022-11-07T11:42:34.468Z,7.28
2022-11-07T11:45:03.877Z,7.53
2022-11-07T11:47:41.253Z,6.90
2022-11-07T11:50:13.651Z,6.80
2022-11-07T11:52:36.351Z,5.65
2022-11-07T11:55:00.571Z,5.38
2022-11-07T11:57:28.151Z,5.30
2022-11-07T12:00:21.062Z,6.68
2022-11-07T12:03:16.633Z,5.68
2022-11-07T12:05:51.420Z,6.03
2022-11-07T12:08:41.654Z,6.50
2022-11-07T12:11:29.066Z,5.68
2022-11-07T12:13:58.615Z,4.78
2022-11-07T12:16:39.226Z,4.72
2022-11-07T12:19:04.686Z,3.97
2022-11-07T12:21:51.153Z,5.03
2022-11-07T12:24:32.781Z,4.93
2022-11-07T12:27:27.075Z,3.63
2022-11-07T12:30:03.075Z,3.38
2022-11-07T12:32:43.453Z,3.63
2022-11-07T12:35:44.437Z,2.95
2022-11-07T12:38:15.955Z,2.70
2022-11-07T12:40:57.398Z,2.97
2022-11-07T12:43:23.093Z,3.25
2022-11-07T12:45:53.707Z,3.17
2022-11-07T12:48:19.571Z,2.72
2022-11-07T12:50:53.458Z,2.92
2022-11-07T12:53:25.342Z,2.42
2022-11-07T12:55:52.382Z,2.70
2022-11-07T12:58:20.903Z,2.70
2022-11-07T13:00:44.817Z,2.60
2022-11-07T13:03:22.682Z,2.40
2022-11-07T13:05:51.202Z,2.35
2022-11-07T13:08:25.090Z,2.75
2022-11-07T13:11:05.029Z,2.50
2022-11-07T13:13:32.286Z,2.50
2022-11-07T13:16:14.643Z,2.50
2022-11-07T13:18:37.987Z,4.05
2022-11-07T13:21:06.046Z,4.35
2022-11-07T13:23:29.936Z,3.03
2022-11-07T13:26:32.411Z,2.40
2022-11-07T13:28:58.972Z,2.42
2022-11-07T13:31:36.830Z,2.65
2022-11-07T13:34:18.469Z,2.28
2022-11-07T13:36:41.123Z,2.90
2022-11-07T13:39:07.200Z,2.70
2022-11-07T13:41:31.812Z,2.58
2022-11-07T13:43:59.163Z,2.67
2022-11-07T13:46:29.879Z,2.83
2022-11-07T13:49:06.872Z,2.35
2022-11-07T13:51:37.430Z,2.67
2022-11-07T13:54:09.120Z,2.55
2022-11-07T13:56:50.591Z,2.55
2022-11-07T13:59:43.371Z,2.40
2022-11-07T14:02:06.578Z,2.42
2022-11-07T14:04:29.704Z,2.50
2022-11-07T14:06:57.227Z,2.40
2022-11-07T14:09:21.213Z,2.75
2022-11-07T14:11:44.910Z,2.53
2022-11-07T14:14:09.284Z,2.60
2022-11-07T14:16:31.897Z,2.38
2022-11-07T14:19:06.520Z,2.30
2022-11-07T14:21:32.064Z,2.60
2022-11-07T14:23:54.931Z,2.67
2022-11-07T14:26:28.109Z,2.70
2022-11-07T14:28:51.561Z,2.47
2022-11-07T14:31:36.161Z,2.70
2022-11-07T14:34:06.050Z,2.85
2022-11-07T14:36:30.535Z,2.60
2022-11-07T14:39:02.986Z,2.80
2022-11-07T14:41:25.830Z,2.50
2022-11-07T14:43:49.819Z,2.83
2022-11-07T14:46:19.078Z,3.30
2022-11-07T14:48:43.105Z,2.85
2022-11-07T14:51:06.053Z,2.83
2022-11-07T14:53:38.850Z,2.97
2022-11-07T14:56:06.884Z,2.42
2022-11-07T14:58:30.472Z,2.65
2022-11-07T15:01:12.661Z,2.65
2022-11-07T15:03:51.780Z,2.83
2022-11-07T15:06:24.737Z,2.40
2022-11-07T15:08:56.851Z,2.58
2022-11-07T15:11:25.402Z,2.60
2022-11-07T15:13:48.538Z,2.60
2022-11-07T15:16:22.749Z,2.72
2022-11-07T15:18:48.624Z,2.53
2022-11-07T15:21:38.962Z,2.53
2022-11-07T15:24:24.517Z,2.75
2022-11-07T15:27:05.666Z,3.00
2022-11-07T15:29:33.767Z,3.25
2022-11-07T15:31:57.298Z,3.40
2022-11-07T15:34:33.906Z,3.40
2022-11-07T15:37:09.437Z,3.13
2022-11-07T15:39:32.122Z,3.33
2022-11-07T15:41:54.574Z,3.22
2022-11-07T15:44:17.473Z,3.03
2022-11-07T15:46:40.400Z,3.50
2022-11-07T15:49:03.470Z,3.20
2022-11-07T15:51:26.157Z,3.45
2022-11-07T15:53:48.909Z,3.45
2022-11-07T15:56:15.449Z,3.40
2022-11-07T15:58:38.102Z,3.63
2022-11-07T16:01:01.011Z,4.22
2022-11-07T16:03:25.424Z,4.90
2022-11-07T16:05:49.980Z,4.28
2022-11-07T16:08:17.784Z,3.97
2022-11-07T16:10:44.114Z,3.97
2022-11-07T16:13:09.236Z,3.83
2022-11-07T16:15:33.354Z,3.45
2022-11-07T16:17:56.331Z,4.10
2022-11-07T16:20:22.116Z,3.95
2022-11-07T16:22:45.840Z,4.13
2022-11-07T16:25:18.609Z,3.85
2022-11-07T16:27:49.148Z,4.00
2022-11-07T16:30:14.815Z,4.00
2022-11-07T16:32:37.490Z,4.28
2022-11-07T16:35:00.255Z,4.25
2022-11-07T16:37:22.933Z,4.22
2022-11-07T16:39:45.651Z,4.18
2022-11-07T16:42:14.293Z,4.15
2022-11-07T16:44:36.973Z,4.10
2022-11-07T16:47:00.353Z,4.90
2022-11-07T16:49:31.363Z,4.30
2022-11-07T16:51:53.968Z,4.13
2022-11-07T16:54:16.745Z,4.60
2022-11-07T16:56:40.641Z,3.73
2022-11-07T16:59:06.188Z,4.43
2022-11-07T17:01:29.058Z,4.65
2022-11-07T17:03:52.330Z,4.40
2022-11-07T17:06:19.352Z,4.18
2022-11-07T17:08:42.115Z,4.68
2022-11-07T17:11:05.815Z,4.68
2022-11-07T17:13:28.573Z,4.88
2022-11-07T17:15:51.768Z,5.30
2022-11-07T17:18:19.351Z,5.28
2022-11-07T17:20:50.919Z,5.82
2022-11-07T17:23:15.566Z,4.90
2022-11-07T17:25:39.303Z,5.90
2022-11-07T17:28:02.118Z,5.78
2022-11-07T17:30:24.792Z,6.47
2022-11-07T17:32:47.356Z,6.57
2022-11-07T17:35:30.995Z,6.95
2022-11-07T17:37:52.954Z,6.85
2022-11-07T17:40:24.749Z,6.93
2022-11-07T17:42:47.753Z,7.43
2022-11-07T17:45:15.578Z,8.07
2022-11-07T17:47:39.645Z,7.97
2022-11-07T17:50:03.677Z,8.32
2022-11-07T17:52:27.784Z,8.30
2022-11-07T17:54:50.369Z,8.18
2022-11-07T17:57:13.071Z,8.68
2022-11-07T17:59:35.846Z,8.98
2022-11-07T18:01:58.996Z,8.88
2022-11-07T18:04:21.888Z,8.95
2022-11-07T18:06:44.937Z,9.43
2022-11-07T18:09:11.594Z,9.73
2022-11-07T18:11:35.355Z,9.60
2022-11-07T18:13:59.320Z,10.48
2022-11-07T18:16:25.451Z,12.48
2022-11-07T18:18:48.425Z,15.88
2022-11-07T18:21:11.690Z,19.57
2022-11-07T18:23:35.031Z,20.50
2022-11-07T18:26:09.712Z,19.25
2022-11-07T18:28:34.650Z,18.00
2022-11-07T18:31:02.667Z,17.80
2022-11-07T18:33:25.551Z,18.20
2022-11-07T18:35:48.450Z,18.15
2022-11-07T18:38:11.277Z,17.23
2022-11-07T18:40:34.250Z,17.23
2022-11-07T18:42:56.872Z,17.25
2022-11-07T18:45:20.335Z,18.17
2022-11-07T18:47:43.315Z,17.60
2022-11-07T18:50:06.584Z,18.50
2022-11-07T18:52:31.487Z,17.90
2022-11-07T18:54:54.394Z,20.17
2022-11-07T18:57:17.221Z,19.40
2022-11-07T18:59:39.980Z,20.33
2022-11-07T19:02:03.204Z,19.92
2022-11-07T19:04:26.065Z,16.70
2022-11-07T19:06:57.967Z,16.67
2022-11-07T19:09:25.930Z,16.00
2022-11-07T19:11:49.152Z,17.50
2022-11-07T19:14:15.133Z,17.70
2022-11-07T19:16:37.767Z,17.45
2022-11-07T19:19:00.789Z,17.05
2022-11-07T19:21:23.630Z,17.70
2022-11-07T19:23:48.168Z,18.73
2022-11-07T19:26:12.505Z,17.77
2022-11-07T19:28:37.438Z,18.00
2022-11-07T19:31:04.854Z,17.40
2022-11-07T19:33:27.718Z,15.97
2022-11-07T19:35:59.547Z,16.60
2022-11-07T19:38:22.539Z,16.38
2022-11-07T19:40:48.724Z,14.48
2022-11-07T19:43:12.082Z,14.27
2022-11-07T19:45:39.985Z,13.27
2022-11-07T19:48:02.961Z,11.50
2022-11-07T19:50:25.898Z,11.90
2022-11-07T19:52:49.365Z,11.73
2022-11-07T19:55:12.319Z,11.18
2022-11-07T19:57:35.317Z,10.57
2022-11-07T20:00:02.113Z,11.02
2022-11-07T20:02:40.107Z,10.35
2022-11-07T20:05:07.361Z,10.82
2022-11-07T20:07:30.164Z,10.40
2022-11-07T20:09:54.865Z,10.48
2022-11-07T20:12:17.885Z,10.30
2022-11-07T20:14:40.441Z,11.10
2022-11-07T20:17:03.259Z,11.05
2022-11-07T20:19:28.545Z,11.60
2022-11-07T20:21:52.518Z,17.83
2022-11-07T20:24:15.562Z,25.75
2022-11-07T20:26:38.748Z,18.92
2022-11-07T20:29:02.203Z,13.98
2022-11-07T20:31:43.908Z,12.80
2022-11-07T20:34:08.641Z,13.83
2022-11-07T20:36:32.123Z,16.80
2022-11-07T20:38:55.839Z,19.13
2022-11-07T20:41:18.669Z,25.60
2022-11-07T20:43:43.780Z,24.95
2022-11-07T20:46:13.386Z,21.93
2022-11-07T20:48:37.041Z,20.55
2022-11-07T20:51:09.027Z,19.48
2022-11-07T20:53:32.302Z,19.33
2022-11-07T20:55:55.150Z,19.98
2022-11-07T20:58:19.212Z,22.77
2022-11-07T21:00:42.631Z,27.38
2022-11-07T21:03:06.151Z,34.60
2022-11-07T21:05:29.475Z,40.03
2022-11-07T21:07:52.433Z,42.53
2022-11-07T21:10:15.478Z,41.00
2022-11-07T21:12:38.185Z,39.55
2022-11-07T21:15:01.014Z,38.08
2022-11-07T21:17:23.722Z,38.58
2022-11-07T21:19:46.555Z,40.10
2022-11-07T21:22:09.386Z,40.50
2022-11-07T21:24:32.322Z,41.53
2022-11-07T21:26:54.906Z,42.50
2022-11-07T21:29:17.757Z,45.10
2022-11-07T21:31:41.301Z,41.83
2022-11-07T21:34:06.388Z,38.97
2022-11-07T21:36:30.959Z,37.97
2022-11-07T21:38:54.631Z,36.83
2022-11-07T21:41:17.373Z,38.95
2022-11-07T21:43:40.802Z,37.72
2022-11-07T21:46:16.834Z,34.80
2022-11-07T21:48:40.121Z,34.40
2022-11-07T21:51:16.971Z,36.60
2022-11-07T21:53:39.997Z,45.80
2022-11-07T21:56:02.542Z,45.10
2022-11-07T21:58:25.056Z,42.40
2022-11-07T22:00:47.613Z,38.72
2022-11-07T22:03:10.405Z,37.60
2022-11-07T22:05:32.891Z,35.90
2022-11-07T22:10:31.844Z,28.10
2022-11-07T22:12:54.356Z,28.63
2022-11-07T22:15:16.923Z,28.83
2022-11-07T22:17:39.420Z,27.33
2022-11-07T22:20:03.184Z,29.20
2022-11-07T22:22:25.768Z,29.20
2022-11-07T22:24:48.321Z,26.25
2022-11-07T22:27:10.954Z,23.25
2022-11-07T22:29:34.348Z,23.90
2022-11-07T22:31:56.985Z,25.20
2022-11-07T22:34:19.658Z,24.90
2022-11-07T22:36:42.340Z,24.17
2022-11-07T22:39:05.174Z,24.27
2022-11-07T22:41:29.256Z,23.92
2022-11-07T22:43:53.074Z,22.90
2022-11-07T22:46:18.732Z,22.90
2022-11-07T22:48:42.245Z,22.95
2022-11-07T22:51:07.383Z,22.90
2022-11-07T22:53:29.988Z,21.10
2022-11-07T22:55:52.430Z,22.20
2022-11-07T22:58:15.347Z,21.23
2022-11-07T23:00:38.135Z,21.45
2022-11-07T23:03:00.713Z,22.08
2022-11-07T23:05:23.373Z,20.70
2022-11-07T23:07:49.627Z,21.63
2022-11-07T23:10:12.228Z,20.67
2022-11-07T23:12:35.587Z,19.98
2022-11-07T23:14:58.033Z,20.60
2022-11-07T23:17:20.597Z,19.40
2022-11-07T23:19:43.389Z,19.88
2022-11-07T23:22:06.170Z,20.63
2022-11-07T23:24:28.831Z,20.00
2022-11-07T23:26:51.452Z,21.13
2022-11-07T23:29:16.736Z,21.92
2022-11-07T23:31:40.565Z,20.23
2022-11-07T23:34:03.220Z,21.37
2022-11-07T23:36:26.043Z,20.73
2022-11-07T23:38:48.765Z,21.40
2022-11-07T23:41:13.447Z,21.90
2022-11-07T23:43:36.035Z,19.63
2022-11-07T23:46:18.100Z,18.40
2022-11-07T23:48:59.434Z,17.38
2022-11-07T23:51:23.039Z,17.73
2022-11-07T23:54:03.858Z,17.73
2022-11-07T23:56:28.582Z,17.25
2022-11-07T23:59:10.438Z,18.23
